createdAt,value
2019-04-27T00:02:24.946Z,75.18
2019-04-27T00:05:32.021Z,75.42
2019-04-27T00:08:19.948Z,74.79
2019-04-27T00:11:13.674Z,74.42
2019-04-27T00:13:45.170Z,74.55
2019-04-27T00:16:50.918Z,73.26
2019-04-27T00:19:39.870Z,73.83
2019-04-27T00:22:33.458Z,73.44
2019-04-27T00:25:05.782Z,74.52
2019-04-27T00:27:37.142Z,75.08
2019-04-27T00:30:08.601Z,74.70
2019-04-27T00:32:40.056Z,75.54
2019-04-27T00:35:13.843Z,76.34
2019-04-27T00:37:59.567Z,76.78
2019-04-27T00:40:34.972Z,75.81
2019-04-27T00:43:06.305Z,75.83
2019-04-27T00:45:37.699Z,75.54
2019-04-27T00:48:09.143Z,75.29
2019-04-27T00:50:40.361Z,74.51
2019-04-27T00:53:13.270Z,74.77
2019-04-27T00:56:17.621Z,75.14
2019-04-27T00:59:06.881Z,75.11
2019-04-27T01:01:43.637Z,74.93
2019-04-27T01:04:19.921Z,75.44
2019-04-27T01:06:51.356Z,74.42
2019-04-27T01:09:23.697Z,74.18
2019-04-27T01:11:55.022Z,75.22
2019-04-27T01:14:26.505Z,75.08
2019-04-27T01:16:59.814Z,74.86
2019-04-27T01:19:31.437Z,76.12
2019-04-27T01:22:02.752Z,75.45
2019-04-27T01:24:34.011Z,74.97
2019-04-27T01:27:23.694Z,75.27
2019-04-27T01:29:55.848Z,74.04
2019-04-27T01:32:29.162Z,73.98
2019-04-27T01:35:00.074Z,73.96
2019-04-27T01:37:31.270Z,73.75
2019-04-27T01:40:03.201Z,74.39
2019-04-27T01:42:34.422Z,75.29
2019-04-27T01:45:06.108Z,75.11
2019-04-27T01:47:39.074Z,74.40
2019-04-27T01:50:10.760Z,74.49
2019-04-27T01:52:41.952Z,74.47
2019-04-27T01:55:13.203Z,74.47
2019-04-27T01:57:44.413Z,74.62
2019-04-27T02:00:32.566Z,74.39
2019-04-27T02:03:05.582Z,73.54
2019-04-27T02:05:56.711Z,73.06
2019-04-27T02:08:28.632Z,72.99
2019-04-27T02:11:00.117Z,72.91
2019-04-27T02:13:31.650Z,73.03
2019-04-27T02:16:02.973Z,73.33
2019-04-27T02:18:37.580Z,72.84
2019-04-27T02:21:09.116Z,74.15
2019-04-27T02:23:40.907Z,73.69
2019-04-27T02:26:12.381Z,74.57
2019-04-27T02:28:58.535Z,73.82
2019-04-27T02:31:54.575Z,72.55
2019-04-27T02:34:30.279Z,73.22
2019-04-27T02:37:02.567Z,73.51
2019-04-27T02:39:34.261Z,73.05
2019-04-27T02:42:05.856Z,72.20
2019-04-27T02:44:41.180Z,72.84
2019-04-27T02:47:12.352Z,72.88
2019-04-27T02:49:43.842Z,73.42
2019-04-27T02:52:22.042Z,73.50
2019-04-27T02:54:53.498Z,72.70
2019-04-27T02:57:24.785Z,73.75
2019-04-27T02:59:56.100Z,73.09
2019-04-27T03:02:33.366Z,73.08
2019-04-27T03:05:04.938Z,72.48
2019-04-27T03:07:39.962Z,72.33
2019-04-27T03:10:09.923Z,72.13
2019-04-27T03:12:46.668Z,71.97
2019-04-27T03:15:46.330Z,72.31
2019-04-27T03:18:51.007Z,72.32
2019-04-27T03:21:26.135Z,73.36
2019-04-27T03:24:00.065Z,73.55
2019-04-27T03:26:50.060Z,72.65
2019-04-27T03:29:23.004Z,72.36
2019-04-27T03:31:54.785Z,72.66
2019-04-27T03:34:26.585Z,72.30
2019-04-27T03:36:59.745Z,74.38
2019-04-27T03:39:32.814Z,74.62
2019-04-27T03:42:03.904Z,75.10
2019-04-27T03:44:35.308Z,75.19
2019-04-27T03:47:06.533Z,74.46
2019-04-27T03:49:41.661Z,75.29
2019-04-27T03:52:30.185Z,74.63
2019-04-27T03:55:14.652Z,75.20
2019-04-27T03:58:03.463Z,74.74
2019-04-27T04:00:34.717Z,74.82
2019-04-27T04:03:06.032Z,75.48
2019-04-27T04:05:39.681Z,75.02
2019-04-27T04:08:10.934Z,75.01
2019-04-27T04:10:50.949Z,74.30
2019-04-27T04:13:29.561Z,74.35
2019-04-27T04:16:07.792Z,74.89
2019-04-27T04:19:09.467Z,74.70
2019-04-27T04:21:40.373Z,74.74
2019-04-27T04:24:12.479Z,75.28
2019-04-27T04:26:44.193Z,75.28
2019-04-27T04:29:15.488Z,74.64
2019-04-27T04:31:46.890Z,74.65
2019-04-27T04:34:19.754Z,74.98
2019-04-27T04:36:51.387Z,74.90
2019-04-27T04:39:22.948Z,74.22
2019-04-27T04:42:06.134Z,74.27
2019-04-27T04:44:50.337Z,74.69
2019-04-27T04:47:40.524Z,74.92
2019-04-27T04:50:15.024Z,74.56
2019-04-27T04:52:44.473Z,74.22
2019-04-27T04:55:16.095Z,74.85
2019-04-27T04:57:49.317Z,74.46
2019-04-27T05:00:20.581Z,74.19
2019-04-27T05:02:52.092Z,75.62
2019-04-27T05:05:23.488Z,75.26
2019-04-27T05:07:54.712Z,75.35
2019-04-27T05:10:26.077Z,75.09
2019-04-27T05:12:59.070Z,74.82
2019-04-27T05:15:30.635Z,74.52
2019-04-27T05:18:02.030Z,74.93
2019-04-27T05:21:04.647Z,75.15
2019-04-27T05:23:36.316Z,74.62
2019-04-27T05:26:09.189Z,74.82
2019-04-27T05:28:40.893Z,74.29
2019-04-27T05:31:12.413Z,74.15
2019-04-27T05:33:43.897Z,74.67
2019-04-27T05:36:15.446Z,74.23
2019-04-27T05:38:47.326Z,74.87
2019-04-27T05:41:18.838Z,74.70
2019-04-27T05:44:12.721Z,75.25
2019-04-27T05:47:09.986Z,76.42
2019-04-27T05:50:03.742Z,77.07
2019-04-27T05:52:34.956Z,76.69
2019-04-27T05:55:06.302Z,77.84
2019-04-27T05:57:39.059Z,78.25
2019-04-27T06:00:12.791Z,77.90
2019-04-27T06:02:45.366Z,78.21
2019-04-27T06:05:22.892Z,78.14
2019-04-27T06:07:54.417Z,78.21
2019-04-27T06:10:25.656Z,78.98
2019-04-27T06:12:57.177Z,79.15
2019-04-27T06:15:30.181Z,79.75
2019-04-27T06:18:03.215Z,77.71
2019-04-27T06:20:34.386Z,78.22
2019-04-27T06:23:05.591Z,77.79
2019-04-27T06:25:39.214Z,77.57
2019-04-27T06:28:10.052Z,76.93
2019-04-27T06:30:42.949Z,77.07
2019-04-27T06:33:27.243Z,76.85
2019-04-27T06:35:49.541Z,76.71
2019-04-27T06:38:21.099Z,76.10
2019-04-27T06:40:52.360Z,75.91
2019-04-27T06:43:24.448Z,75.41
2019-04-27T06:45:55.783Z,76.04
2019-04-27T06:48:27.148Z,76.62
2019-04-27T06:51:03.587Z,77.27
2019-04-27T06:53:31.587Z,77.33
2019-04-27T06:56:02.867Z,77.14
2019-04-27T06:58:34.460Z,77.17
2019-04-27T07:01:05.661Z,76.57
2019-04-27T07:03:36.856Z,75.88
2019-04-27T07:06:08.820Z,75.66
2019-04-27T07:08:40.251Z,75.98
2019-04-27T07:11:11.750Z,75.72
2019-04-27T07:13:42.911Z,74.05
2019-04-27T07:16:14.246Z,75.00
2019-04-27T07:18:45.704Z,74.51
2019-04-27T07:21:21.621Z,73.53
2019-04-27T07:23:59.844Z,73.46
2019-04-27T07:26:31.362Z,72.34
2019-04-27T07:29:02.801Z,72.45
2019-04-27T07:31:34.047Z,72.65
2019-04-27T07:34:05.272Z,72.71
2019-04-27T07:36:36.515Z,72.60
2019-04-27T07:39:11.479Z,71.37
2019-04-27T07:41:42.453Z,70.93
2019-04-27T07:44:39.148Z,71.26
2019-04-27T07:47:30.740Z,70.97
2019-04-27T07:50:01.518Z,70.55
2019-04-27T07:52:33.164Z,70.61
2019-04-27T07:55:04.471Z,71.01
2019-04-27T07:57:35.743Z,71.35
2019-04-27T08:00:08.830Z,70.63
2019-04-27T08:02:41.326Z,70.34
2019-04-27T08:05:12.731Z,71.76
2019-04-27T08:07:44.047Z,71.54
2019-04-27T08:10:16.125Z,71.28
2019-04-27T08:12:47.355Z,72.70
2019-04-27T08:15:19.105Z,71.88
2019-04-27T08:17:50.438Z,71.63
2019-04-27T08:20:22.039Z,71.34
2019-04-27T08:22:53.463Z,71.26
2019-04-27T08:25:25.186Z,71.37
2019-04-27T08:28:19.597Z,71.45
2019-04-27T08:31:15.857Z,70.51
2019-04-27T08:33:48.629Z,70.49
2019-04-27T08:36:20.216Z,69.79
2019-04-27T08:38:51.675Z,69.26
2019-04-27T08:41:22.923Z,70.01
2019-04-27T08:43:54.258Z,69.46
2019-04-27T08:46:25.724Z,69.94
2019-04-27T08:48:58.709Z,70.27
2019-04-27T08:51:30.275Z,69.67
2019-04-27T08:54:01.764Z,69.32
2019-04-27T08:56:33.249Z,69.00
2019-04-27T08:59:04.927Z,68.66
2019-04-27T09:01:36.191Z,69.02
2019-04-27T09:04:09.232Z,69.55
2019-04-27T09:06:42.532Z,69.43
2019-04-27T09:09:21.591Z,69.12
2019-04-27T09:11:59.482Z,68.53
2019-04-27T09:14:45.374Z,67.88
2019-04-27T09:17:41.963Z,67.92
2019-04-27T09:20:32.605Z,69.19
2019-04-27T09:23:03.885Z,69.52
2019-04-27T09:25:35.371Z,70.12
2019-04-27T09:28:08.653Z,70.04
2019-04-27T09:30:40.244Z,68.55
2019-04-27T09:33:11.933Z,68.83
2019-04-27T09:35:46.616Z,69.20
2019-04-27T09:38:18.555Z,68.67
2019-04-27T09:40:49.932Z,68.14
2019-04-27T09:43:21.485Z,67.85
2019-04-27T09:45:52.935Z,68.28
2019-04-27T09:48:25.904Z,68.60
2019-04-27T09:50:57.503Z,68.69
2019-04-27T09:53:29.035Z,68.81
2019-04-27T09:56:00.632Z,69.74
2019-04-27T09:58:31.994Z,69.83
2019-04-27T10:01:03.582Z,69.31
2019-04-27T10:03:36.215Z,69.32
2019-04-27T10:06:09.124Z,69.53
2019-04-27T10:08:40.663Z,70.68
2019-04-27T10:11:12.116Z,70.50
2019-04-27T10:13:43.407Z,69.78
2019-04-27T10:16:14.935Z,70.25
2019-04-27T10:18:46.607Z,70.49
2019-04-27T10:21:17.891Z,70.52
2019-04-27T10:23:49.276Z,70.10
2019-04-27T10:26:20.490Z,70.08
2019-04-27T10:28:51.797Z,70.13
2019-04-27T10:31:23.235Z,69.77
2019-04-27T10:33:55.943Z,69.27
2019-04-27T10:36:39.833Z,69.77
2019-04-27T10:39:13.398Z,69.57
2019-04-27T10:42:15.214Z,69.87
2019-04-27T10:45:09.418Z,70.26
2019-04-27T10:47:49.473Z,69.77
2019-04-27T10:50:32.524Z,69.87
2019-04-27T10:53:18.297Z,69.78
2019-04-27T10:56:07.244Z,70.55
2019-04-27T10:58:38.846Z,69.77
2019-04-27T11:01:10.097Z,69.01
2019-04-27T11:04:05.652Z,68.37
2019-04-27T11:06:39.763Z,67.79
2019-04-27T11:09:12.072Z,67.80
2019-04-27T11:11:43.419Z,66.94
2019-04-27T11:14:16.004Z,66.67
2019-04-27T11:17:00.071Z,66.26
2019-04-27T11:19:31.373Z,65.71
2019-04-27T11:22:03.000Z,64.65
2019-04-27T11:24:34.224Z,65.93
2019-04-27T11:27:05.903Z,65.39
2019-04-27T11:29:46.712Z,64.16
2019-04-27T11:32:35.890Z,65.65
2019-04-27T11:35:35.814Z,65.29
2019-04-27T11:38:07.705Z,65.24
2019-04-27T11:40:39.161Z,65.69
2019-04-27T11:43:26.077Z,67.24
2019-04-27T11:46:18.719Z,66.72
2019-04-27T11:49:07.870Z,65.93
2019-04-27T11:51:39.124Z,66.71
2019-04-27T11:54:10.458Z,66.94
2019-04-27T11:56:42.361Z,66.50
2019-04-27T12:01:50.614Z,66.39
2019-04-27T12:04:48.385Z,65.83
2019-04-27T12:07:23.346Z,66.67
2019-04-27T12:09:59.979Z,66.07
2019-04-27T12:12:32.004Z,66.29
2019-04-27T12:15:03.216Z,66.05
2019-04-27T12:17:41.095Z,66.52
2019-04-27T12:20:39.739Z,65.49
2019-04-27T12:23:16.553Z,65.24
2019-04-27T12:25:58.087Z,65.83
2019-04-27T12:28:52.592Z,66.01
2019-04-27T12:31:32.842Z,67.68
2019-04-27T12:34:16.292Z,68.05
2019-04-27T12:37:07.302Z,68.42
2019-04-27T12:39:38.758Z,68.04
2019-04-27T12:42:10.825Z,67.19
2019-04-27T12:45:00.425Z,67.46
2019-04-27T12:47:31.799Z,64.59
2019-04-27T12:50:03.076Z,65.11
2019-04-27T12:52:35.983Z,65.76
2019-04-27T12:55:25.739Z,65.73
2019-04-27T12:58:16.458Z,66.09
2019-04-27T13:00:49.635Z,66.02
2019-04-27T13:03:21.187Z,65.94
2019-04-27T13:05:52.854Z,65.35
2019-04-27T13:08:25.861Z,64.89
2019-04-27T13:10:57.404Z,65.32
2019-04-27T13:13:28.781Z,64.25
2019-04-27T13:15:59.985Z,62.53
2019-04-27T13:18:31.456Z,62.88
2019-04-27T13:21:02.724Z,63.64
2019-04-27T13:23:33.952Z,62.75
2019-04-27T13:26:06.243Z,61.79
2019-04-27T13:28:38.154Z,62.26
2019-04-27T13:31:09.510Z,60.68
2019-04-27T13:33:40.745Z,60.61
2019-04-27T13:36:12.474Z,61.11
2019-04-27T13:38:44.388Z,62.11
2019-04-27T13:41:26.166Z,59.41
2019-04-27T13:43:48.625Z,59.20
2019-04-27T13:46:33.574Z,60.51
2019-04-27T13:49:22.528Z,60.80
2019-04-27T13:52:07.553Z,59.66
2019-04-27T13:54:38.857Z,60.58
2019-04-27T13:57:10.347Z,59.29
2019-04-27T13:59:41.922Z,59.27
2019-04-27T14:02:16.150Z,60.47
2019-04-27T14:04:47.523Z,59.36
2019-04-27T14:07:19.071Z,58.63
2019-04-27T14:09:50.643Z,56.95
2019-04-27T14:12:22.363Z,57.92
2019-04-27T14:14:53.936Z,56.19
2019-04-27T14:17:25.416Z,57.28
2019-04-27T14:19:56.969Z,56.76
2019-04-27T14:22:31.343Z,57.06
2019-04-27T14:25:01.402Z,57.49
2019-04-27T14:27:40.553Z,58.64
2019-04-27T14:30:15.431Z,58.28
2019-04-27T14:32:48.811Z,56.84
2019-04-27T14:35:21.662Z,56.29
2019-04-27T14:37:52.907Z,55.79
2019-04-27T14:40:24.317Z,55.14
2019-04-27T14:42:55.949Z,54.36
2019-04-27T14:45:28.628Z,54.82
2019-04-27T14:48:00.054Z,54.47
2019-04-27T14:50:31.246Z,53.23
2019-04-27T14:53:02.456Z,54.52
2019-04-27T14:55:33.709Z,54.77
2019-04-27T14:58:05.223Z,54.91
2019-04-27T15:00:38.473Z,53.82
2019-04-27T15:03:10.144Z,53.51
2019-04-27T15:05:43.346Z,52.74
2019-04-27T15:08:18.447Z,53.38
2019-04-27T15:10:49.753Z,53.17
2019-04-27T15:13:21.120Z,53.82
2019-04-27T15:15:52.611Z,53.36
2019-04-27T15:18:25.503Z,53.32
2019-04-27T15:20:58.470Z,53.37
2019-04-27T15:23:30.885Z,53.80
2019-04-27T15:26:02.932Z,54.20
2019-04-27T15:28:36.585Z,54.29
2019-04-27T15:31:29.440Z,55.60
2019-04-27T15:34:27.503Z,56.04
2019-04-27T15:37:33.956Z,55.40
2019-04-27T15:40:28.998Z,55.08
2019-04-27T15:43:22.922Z,57.03
2019-04-27T15:45:57.722Z,57.55
2019-04-27T15:48:30.693Z,56.92
2019-04-27T15:51:12.600Z,57.27
2019-04-27T15:53:40.773Z,56.39
2019-04-27T15:56:09.769Z,56.13
2019-04-27T15:58:41.670Z,56.13
2019-04-27T16:01:49.028Z,55.86
2019-04-27T16:04:20.353Z,55.51
2019-04-27T16:06:51.580Z,58.85
2019-04-27T16:09:25.548Z,58.35
2019-04-27T16:12:14.315Z,57.20
2019-04-27T16:15:05.126Z,57.34
2019-04-27T16:17:42.351Z,57.44
2019-04-27T16:20:10.344Z,57.90
2019-04-27T16:22:41.660Z,57.92
2019-04-27T16:25:13.632Z,56.94
2019-04-27T16:27:48.989Z,56.45
2019-04-27T16:30:22.424Z,56.98
2019-04-27T16:32:58.379Z,57.01
2019-04-27T16:35:34.126Z,57.79
2019-04-27T16:38:33.560Z,57.97
2019-04-27T16:41:21.166Z,57.69
2019-04-27T16:43:52.914Z,57.04
2019-04-27T16:46:24.547Z,56.33
2019-04-27T16:48:55.921Z,56.74
2019-04-27T16:51:29.735Z,56.38
2019-04-27T16:54:01.937Z,56.57
2019-04-27T16:56:33.271Z,56.55
2019-04-27T16:59:26.747Z,56.50
2019-04-27T17:01:40.090Z,57.30
2019-04-27T17:04:14.981Z,56.82
2019-04-27T17:06:46.365Z,57.58
2019-04-27T17:09:18.948Z,57.51
2019-04-27T17:11:51.788Z,57.11
2019-04-27T17:14:36.589Z,58.11
2019-04-27T17:17:30.299Z,57.79
2019-04-27T17:20:03.696Z,57.55
2019-04-27T17:22:35.211Z,57.18
2019-04-27T17:25:08.850Z,58.19
2019-04-27T17:27:48.430Z,59.25
2019-04-27T17:30:20.099Z,59.13
2019-04-27T17:33:15.596Z,59.11
2019-04-27T17:35:46.308Z,58.73
2019-04-27T17:38:19.557Z,59.49
2019-04-27T17:40:51.833Z,59.72
2019-04-27T17:43:23.340Z,59.95
2019-04-27T17:45:54.989Z,61.11
2019-04-27T17:48:28.754Z,61.14
2019-04-27T17:51:02.458Z,61.42
2019-04-27T17:53:33.289Z,61.10
2019-04-27T17:56:05.991Z,61.02
2019-04-27T17:58:39.862Z,61.96
2019-04-27T18:01:14.087Z,61.72
2019-04-27T18:03:44.476Z,61.91
2019-04-27T18:06:15.988Z,62.53
2019-04-27T18:08:48.577Z,62.17
2019-04-27T18:11:25.845Z,62.32
2019-04-27T18:14:15.544Z,63.28
2019-04-27T18:16:48.188Z,63.48
2019-04-27T18:19:24.813Z,64.42
2019-04-27T18:22:06.450Z,64.53
2019-04-27T18:25:15.286Z,65.13
2019-04-27T18:27:54.090Z,64.60
2019-04-27T18:30:33.654Z,64.81
2019-04-27T18:33:05.167Z,66.52
2019-04-27T18:35:38.636Z,65.46
2019-04-27T18:38:10.109Z,65.87
2019-04-27T18:40:41.698Z,66.16
2019-04-27T18:43:15.099Z,66.03
2019-04-27T18:45:48.512Z,66.25
2019-04-27T18:48:40.266Z,65.76
2019-04-27T18:51:30.496Z,65.82
2019-04-27T18:54:03.558Z,66.06
2019-04-27T18:56:41.771Z,65.95
2019-04-27T18:59:13.341Z,65.35
2019-04-27T19:01:44.968Z,65.05
2019-04-27T19:04:16.341Z,65.58
2019-04-27T19:06:47.745Z,64.80
2019-04-27T19:09:20.029Z,65.79
2019-04-27T19:11:56.220Z,66.82
2019-04-27T19:14:26.091Z,66.97
2019-04-27T19:16:58.781Z,66.26
2019-04-27T19:19:30.537Z,66.09
2019-04-27T19:22:02.309Z,66.37
2019-04-27T19:24:33.871Z,66.46
2019-04-27T19:27:21.204Z,66.64
2019-04-27T19:29:55.576Z,66.57
2019-04-27T19:32:29.041Z,66.72
2019-04-27T19:35:00.265Z,66.54
2019-04-27T19:37:32.029Z,67.03
2019-04-27T19:40:03.262Z,67.27
2019-04-27T19:42:34.544Z,67.71
2019-04-27T19:45:06.589Z,68.64
2019-04-27T19:47:38.581Z,68.61
2019-04-27T19:50:10.386Z,70.36
2019-04-27T19:52:42.520Z,70.32
2019-04-27T19:55:14.006Z,69.39
2019-04-27T19:57:45.707Z,69.67
2019-04-27T20:00:30.482Z,71.13
2019-04-27T20:03:03.016Z,70.34
2019-04-27T20:05:34.735Z,70.47
2019-04-27T20:08:08.878Z,70.59
2019-04-27T20:10:43.059Z,70.34
2019-04-27T20:13:17.318Z,69.39
2019-04-27T20:15:48.727Z,69.85
2019-04-27T20:18:20.890Z,69.78
2019-04-27T20:20:53.427Z,69.46
2019-04-27T20:23:24.632Z,69.88
2019-04-27T20:25:56.198Z,69.65
2019-04-27T20:28:27.539Z,69.38
2019-04-27T20:30:59.664Z,69.41
2019-04-27T20:33:31.321Z,68.70
2019-04-27T20:36:02.881Z,68.97
2019-04-27T20:38:34.250Z,68.03
2019-04-27T20:41:05.841Z,68.68
2019-04-27T20:43:37.405Z,69.48
2019-04-27T20:46:08.660Z,69.57
2019-04-27T20:48:41.377Z,69.90
2019-04-27T20:51:13.277Z,70.13
2019-04-27T20:53:48.362Z,69.83
2019-04-27T20:56:19.969Z,70.18
2019-04-27T20:58:51.849Z,70.38
2019-04-27T21:01:23.511Z,70.72
2019-04-27T21:03:57.778Z,70.25
2019-04-27T21:06:40.993Z,70.35
2019-04-27T21:09:16.447Z,70.24
2019-04-27T21:11:48.932Z,70.94
2019-04-27T21:14:21.726Z,70.63
2019-04-27T21:16:53.609Z,70.73
2019-04-27T21:19:25.016Z,70.53
2019-04-27T21:21:56.407Z,70.31
2019-04-27T21:24:27.786Z,70.49
2019-04-27T21:26:59.845Z,70.69
2019-04-27T21:29:31.294Z,70.93
2019-04-27T21:32:02.701Z,71.77
2019-04-27T21:34:34.481Z,71.52
2019-04-27T21:37:05.931Z,72.37
2019-04-27T21:39:37.475Z,72.20
2019-04-27T21:42:09.049Z,71.53
2019-04-27T21:44:41.976Z,71.61
2019-04-27T21:47:13.422Z,71.40
2019-04-27T21:49:45.041Z,71.42
2019-04-27T21:52:25.116Z,71.30
2019-04-27T21:54:56.674Z,71.42
2019-04-27T21:57:28.299Z,71.61
2019-04-27T22:00:00.792Z,72.39
2019-04-27T22:02:32.836Z,71.90
2019-04-27T22:05:08.335Z,72.26
2019-04-27T22:07:39.682Z,71.75
2019-04-27T22:10:11.712Z,71.29
2019-04-27T22:12:43.265Z,71.00
2019-04-27T22:15:14.865Z,72.01
2019-04-27T22:17:46.519Z,72.33
2019-04-27T22:20:17.965Z,72.75
2019-04-27T22:22:51.713Z,72.76
2019-04-27T22:25:23.477Z,71.84
2019-04-27T22:27:55.191Z,72.11
2019-04-27T22:30:26.486Z,72.63
2019-04-27T22:32:58.293Z,72.72
2019-04-27T22:35:31.305Z,72.67
2019-04-27T22:38:02.948Z,72.47
2019-04-27T22:41:02.203Z,72.50
2019-04-27T22:43:52.363Z,72.48
2019-04-27T22:46:24.391Z,72.63
2019-04-27T22:48:57.060Z,74.31
2019-04-27T22:51:28.266Z,74.10
2019-04-27T22:54:01.344Z,73.95
2019-04-27T22:56:32.941Z,76.23
2019-04-27T22:59:27.055Z,76.10
2019-04-27T23:02:12.759Z,75.19
2019-04-27T23:04:48.412Z,74.33
2019-04-27T23:07:21.260Z,73.67
2019-04-27T23:09:52.611Z,74.17
2019-04-27T23:12:23.933Z,74.58
2019-04-27T23:14:55.446Z,74.44
2019-04-27T23:17:51.762Z,74.74
2019-04-27T23:20:24.125Z,74.68
2019-04-27T23:22:55.765Z,75.00
2019-04-27T23:25:26.992Z,74.76
2019-04-27T23:27:58.230Z,75.26
2019-04-27T23:30:41.106Z,75.10
2019-04-27T23:33:12.354Z,75.16
2019-04-27T23:35:44.203Z,75.55
2019-04-27T23:38:20.567Z,75.09
2019-04-27T23:40:51.935Z,74.50
2019-04-27T23:43:23.336Z,75.15
2019-04-27T23:45:55.449Z,74.90
2019-04-27T23:48:26.864Z,75.37
2019-04-27T23:51:04.345Z,75.63
2019-04-27T23:53:36.913Z,75.64
2019-04-27T23:56:08.317Z,76.11
2019-04-27T23:58:40.076Z,75.71
